Time;durP1;ratioP1;P1;durP2;ratioP2;P2;SDS_P1;SDS_P2;PMS_P1;PMS_P2;Temp;Humidity;BMP_temperature;BMP_pressure;BME280_temperature;BME280_humidity;BME280_pressure;Samples;Min_cycle;Max_cycle;Signal;HPM_P1;HPM_P2
2022/06/06 00:02:12;;;;;;;0.98;0.57;;;;;;;17.05;100.00;99778.78;12204895;19;20022;-80
2022/06/06 00:06:17;;;;;;;1.58;0.40;;;;;;;16.94;100.00;99774.44;12196422;19;20023;-81
2022/06/06 00:10:19;;;;;;;0.15;0.15;;;;;;;16.85;100.00;99777.84;12174456;19;20122;-79
2022/06/06 00:14:22;;;;;;;1.90;1.48;;;;;;;16.79;100.00;99779.00;12200230;19;20007;-80
2022/06/06 00:18:23;;;;;;;0.40;0.40;;;;;;;16.74;100.00;99770.66;12183326;19;20460;-79
2022/06/06 00:22:25;;;;;;;0.28;0.28;;;;;;;16.75;100.00;99777.91;12214110;19;20545;-80
2022/06/06 00:26:30;;;;;;;0.10;0.10;;;;;;;16.78;100.00;99770.97;12210115;19;20006;-80
2022/06/06 00:30:31;;;;;;;0.13;0.13;;;;;;;16.77;100.00;99778.47;12194265;19;20035;-79
2022/06/06 00:34:52;;;;;;;0.30;0.30;;;;;;;16.73;100.00;99774.56;12217454;19;20098;-79
2022/06/06 00:38:54;;;;;;;0.50;0.17;;;;;;;16.79;100.00;99761.47;12217381;19;20448;-81
2022/06/06 00:42:56;;;;;;;0.43;0.43;;;;;;;16.83;100.00;99766.16;12219811;19;20007;-78
2022/06/06 00:47:04;;;;;;;0.43;0.43;;;;;;;16.79;100.00;99762.31;12265425;19;20006;-80
2022/06/06 00:51:11;;;;;;;0.08;0.08;;;;;;;16.72;100.00;99759.00;12264092;19;20002;-78
2022/06/06 00:55:20;;;;;;;0.17;0.17;;;;;;;16.63;100.00;99763.56;12237415;19;20137;-79
2022/06/06 00:59:25;;;;;;;0.93;0.55;;;;;;;16.53;100.00;99764.44;12266806;19;20417;-78
2022/06/06 01:03:28;;;;;;;0.10;0.10;;;;;;;16.45;100.00;99761.44;12238066;19;20003;-79
2022/06/06 01:07:29;;;;;;;0.25;0.17;;;;;;;16.43;100.00;99755.38;12267497;19;20006;-80
2022/06/06 01:11:37;;;;;;;0.10;0.10;;;;;;;16.37;100.00;99755.41;12257863;19;20037;-78
2022/06/06 01:15:50;;;;;;;0.40;0.40;;;;;;;16.30;100.00;99742.94;12239514;19;20030;-78
2022/06/06 01:19:52;;;;;;;0.98;0.63;;;;;;;16.22;100.00;99738.00;12235601;19;20050;-81
2022/06/06 01:24:19;;;;;;;0.63;0.50;;;;;;;16.16;100.00;99734.44;12217479;19;20520;-82
2022/06/06 01:28:50;;;;;;;1.17;0.63;;;;;;;16.10;100.00;99743.94;12190073;19;20423;-81
2022/06/06 01:32:55;;;;;;;0.63;0.63;;;;;;;16.07;100.00;99741.72;12211331;19;20046;-80
2022/06/06 01:36:57;;;;;;;0.20;0.20;;;;;;;16.05;100.00;99735.59;12192022;19;20010;-80
2022/06/06 01:41:08;;;;;;;0.32;0.32;;;;;;;16.02;100.00;99733.41;12211790;19;20043;-80
2022/06/06 01:45:17;;;;;;;0.52;0.50;;;;;;;15.94;100.00;99730.13;12205763;19;20040;-78
2022/06/06 01:49:20;;;;;;;3.58;0.25;;;;;;;15.93;100.00;99731.22;12186848;19;20010;-79
2022/06/06 01:53:24;;;;;;;0.10;0.10;;;;;;;15.90;100.00;99734.59;12207034;19;20074;-80
2022/06/06 01:57:26;;;;;;;0.75;0.75;;;;;;;15.86;100.00;99738.25;12187737;19;20003;-79
2022/06/06 02:01:28;;;;;;;0.23;0.23;;;;;;;15.81;100.00;99739.09;12207094;19;20006;-79
2022/06/06 02:05:30;;;;;;;0.95;0.55;;;;;;;15.80;100.00;99736.59;12209951;19;20014;-79
2022/06/06 02:09:32;;;;;;;0.75;0.75;;;;;;;15.77;100.00;99734.41;12176606;19;20006;-79
2022/06/06 02:13:34;;;;;;;0.93;0.88;;;;;;;15.75;100.00;99737.44;12205559;19;20007;-78
2022/06/06 02:17:36;;;;;;;0.80;0.50;;;;;;;15.72;100.00;99738.84;12198346;19;20079;-79
2022/06/06 02:21:38;;;;;;;0.32;0.25;;;;;;;15.68;100.00;99731.38;12181370;19;20071;-79
2022/06/06 02:25:40;;;;;;;0.60;0.60;;;;;;;15.61;100.00;99733.59;12207387;19;20027;-78
2022/06/06 02:29:43;;;;;;;0.55;0.50;;;;;;;15.58;100.00;99739.72;12201879;19;20042;-80
2022/06/06 02:33:45;;;;;;;2.25;0.50;;;;;;;15.50;100.00;99747.53;12185939;19;20019;-79
2022/06/06 02:37:47;;;;;;;1.35;0.90;;;;;;;15.47;100.00;99759.22;12206408;19;20022;-79
2022/06/06 02:41:49;;;;;;;0.20;0.20;;;;;;;15.42;100.00;99750.91;12061291;19;2735571;-79
2022/06/06 02:45:50;;;;;;;0.17;0.17;;;;;;;15.38;100.00;99755.38;12189539;19;20039;-78
2022/06/06 02:49:52;;;;;;;0.10;0.10;;;;;;;15.37;100.00;99759.25;12203030;19;20011;-79
2022/06/06 02:53:54;;;;;;;0.22;0.22;;;;;;;15.29;100.00;99757.06;12201553;19;20370;-78
2022/06/06 02:57:58;;;;;;;0.93;0.52;;;;;;;15.26;100.00;99754.84;12183559;19;20417;-79
2022/06/06 03:01:59;;;;;;;0.10;0.10;;;;;;;15.25;100.00;99764.28;12206934;19;20006;-78
2022/06/06 03:06:04;;;;;;;2.40;0.40;;;;;;;15.29;100.00;99762.63;12200930;19;20078;-81
2022/06/06 03:10:27;;;;;;;0.17;0.17;;;;;;;15.37;100.00;99766.75;12177267;19;20006;-81
2022/06/06 03:14:43;;;;;;;0.28;0.28;;;;;;;15.40;100.00;99758.66;12257076;19;20018;-79
2022/06/06 03:23:48;;;;;;;0.93;0.80;;;;;;;15.24;100.00;99763.44;12202975;19;20033;-78
2022/06/06 03:28:27;;;;;;;1.23;0.50;;;;;;;15.28;100.00;99761.75;12178469;19;20014;-81
2022/06/06 03:32:38;;;;;;;0.50;0.50;;;;;;;15.30;100.00;99772.59;12189826;19;20038;-80
2022/06/06 03:36:55;;;;;;;1.77;0.75;;;;;;;15.29;100.00;99770.94;12180264;19;20026;-80
2022/06/06 03:41:12;;;;;;;0.80;0.80;;;;;;;15.33;100.00;99779.53;12205819;19;20019;-82
2022/06/06 03:45:27;;;;;;;0.20;0.20;;;;;;;15.33;100.00;99777.59;12193964;19;20014;-81
2022/06/06 03:50:07;;;;;;;1.20;1.08;;;;;;;15.35;100.00;99778.16;12179825;19;20378;-80
2022/06/06 03:54:31;;;;;;;0.43;0.38;;;;;;;15.38;100.00;99780.34;12191560;19;20011;-78
2022/06/06 03:58:33;;;;;;;0.30;0.30;;;;;;;15.40;100.00;99786.44;12175054;19;20138;-78
2022/06/06 04:02:36;;;;;;;0.55;0.38;;;;;;;15.41;100.00;99792.84;12187091;19;20098;-79
2022/06/06 04:06:38;;;;;;;0.57;0.57;;;;;;;15.47;100.00;99800.03;12174934;19;20623;-80
2022/06/06 04:11:04;;;;;;;1.00;1.00;;;;;;;15.61;100.00;99803.03;12202058;19;20485;-80
2022/06/06 04:15:15;;;;;;;0.10;0.10;;;;;;;15.81;100.00;99799.38;12197693;19;20002;-80
2022/06/06 04:19:37;;;;;;;0.50;0.50;;;;;;;16.08;100.00;99804.53;12173401;19;20082;-79
2022/06/06 04:24:10;;;;;;;0.30;0.30;;;;;;;16.31;100.00;99806.59;12200761;19;20011;-79
2022/06/06 04:28:26;;;;;;;0.63;0.63;;;;;;;16.52;100.00;99809.25;12168352;19;20014;-79
2022/06/06 04:33:00;;;;;;;1.75;0.82;;;;;;;16.62;100.00;99812.78;12195946;19;20006;-78
2022/06/06 04:37:09;;;;;;;1.15;1.05;;;;;;;16.73;100.00;99809.91;12178707;19;20057;-79
2022/06/06 04:41:26;;;;;;;1.08;0.95;;;;;;;16.79;100.00;99815.19;12202565;19;20069;-79
2022/06/06 04:45:43;;;;;;;1.17;1.08;;;;;;;16.78;100.00;99801.56;12181680;19;20363;-78
2022/06/06 04:49:46;;;;;;;5.43;1.58;;;;;;;17.02;100.00;99810.00;12200625;19;20010;-78
2022/06/06 04:53:56;;;;;;;2.00;1.58;;;;;;;17.28;100.00;99805.84;12192029;19;20010;-79
2022/06/06 04:58:01;;;;;;;0.40;0.40;;;;;;;17.56;100.00;99814.44;12164677;19;20038;-79
2022/06/06 05:02:04;;;;;;;0.68;0.68;;;;;;;17.65;100.00;99817.41;12197538;19;20109;-78
2022/06/06 05:06:28;;;;;;;0.20;0.20;;;;;;;17.69;100.00;99819.28;12208520;19;20007;-79
2022/06/06 05:10:51;;;;;;;1.45;0.75;;;;;;;17.62;100.00;99823.56;12185701;19;20006;-79
2022/06/06 05:15:23;;;;;;;0.93;0.90;;;;;;;17.55;100.00;99812.78;12209952;19;20039;-77
2022/06/06 05:19:33;;;;;;;0.52;0.47;;;;;;;17.55;100.00;99812.78;12181987;19;20069;-79
2022/06/06 05:23:51;;;;;;;0.90;0.90;;;;;;;17.59;100.00;99818.59;12204551;19;20014;-79
2022/06/06 05:28:25;;;;;;;0.90;0.70;;;;;;;17.71;100.00;99827.34;12187068;19;20007;-79
2022/06/06 05:32:50;;;;;;;0.47;0.47;;;;;;;17.94;100.00;99820.16;12198497;19;20078;-79
2022/06/06 05:37:15;;;;;;;0.38;0.20;;;;;;;18.11;100.00;99814.03;12184546;19;20015;-80
2022/06/06 05:41:29;;;;;;;0.43;0.43;;;;;;;18.25;100.00;99814.13;12202464;19;20002;-79
2022/06/06 05:45:41;;;;;;;2.45;1.13;;;;;;;18.31;100.00;99824.09;12179501;19;20029;-79
2022/06/06 05:50:17;;;;;;;0.68;0.68;;;;;;;18.38;100.00;99819.81;12199772;19;20006;-79
2022/06/06 05:54:31;;;;;;;0.40;0.40;;;;;;;18.45;100.00;99813.84;12203250;19;20035;-79
2022/06/06 05:59:10;;;;;;;1.17;0.75;;;;;;;18.53;100.00;99824.34;12184747;19;20018;-79
2022/06/06 06:03:22;;;;;;;0.25;0.25;;;;;;;18.53;100.00;99837.44;12202404;19;20028;-78
2022/06/06 06:07:42;;;;;;;1.55;1.00;;;;;;;18.75;100.00;99842.44;12183949;19;20027;-79
2022/06/06 06:12:02;;;;;;;0.77;0.77;;;;;;;18.81;100.00;99842.06;12192197;19;20003;-79
2022/06/06 06:16:04;;;;;;;0.55;0.55;;;;;;;18.65;100.00;99846.19;12170293;19;20520;-79
2022/06/06 06:20:11;;;;;;;0.57;0.57;;;;;;;18.53;100.00;99848.59;12195567;19;20587;-80
2022/06/06 06:24:19;;;;;;;1.15;0.65;;;;;;;18.53;100.00;99862.53;12207208;19;20018;-82
2022/06/06 06:28:20;;;;;;;0.15;0.15;;;;;;;18.56;100.00;99871.16;12174872;19;20010;-83
2022/06/06 06:32:38;;;;;;;0.17;0.17;;;;;;;18.63;100.00;99877.19;12191677;19;20072;-80
2022/06/06 06:37:02;;;;;;;0.28;0.28;;;;;;;18.92;100.00;99879.03;12216000;19;20021;-78
2022/06/06 06:41:10;;;;;;;0.93;0.82;;;;;;;19.08;100.00;99877.63;12231597;19;20010;-81
2022/06/06 06:45:20;;;;;;;0.68;0.68;;;;;;;19.05;100.00;99881.03;12212460;19;20023;-82
2022/06/06 06:49:40;;;;;;;0.30;0.30;;;;;;;19.06;100.00;99887.44;12186140;19;20006;-84
2022/06/06 06:53:54;;;;;;;1.25;1.10;;;;;;;19.12;100.00;99881.44;12200478;19;20082;-81
2022/06/06 06:58:33;;;;;;;0.68;0.68;;;;;;;19.04;100.00;99879.38;12177096;19;20010;-80
2022/06/06 07:11:54;;;;;;;0.73;0.70;;;;;;;19.56;100.00;99890.47;12204151;19;20006;-82
2022/06/06 07:16:20;;;;;;;0.28;0.28;;;;;;;19.83;100.00;99870.13;12188567;19;20086;-82
2022/06/06 07:20:22;;;;;;;1.45;1.35;;;;;;;20.02;100.00;99878.44;12206943;19;20034;-82
2022/06/06 07:24:25;;;;;;;17.50;1.80;;;;;;;20.31;100.00;99872.50;12189775;19;20019;-82
2022/06/06 07:28:28;;;;;;;0.52;0.47;;;;;;;20.45;100.00;99862.09;12200972;19;20031;-82
2022/06/06 07:32:43;;;;;;;2.83;1.40;;;;;;;20.25;100.00;99859.75;12203497;19;20027;-81
2022/06/06 07:37:12;;;;;;;0.80;0.50;;;;;;;20.13;100.00;99854.69;12187813;19;20077;-81
2022/06/06 07:41:14;;;;;;;0.65;0.65;;;;;;;20.41;100.00;99852.69;12203805;19;20030;-82
2022/06/06 07:45:28;;;;;;;0.68;0.68;;;;;;;20.18;100.00;99842.56;12203096;19;20078;-81
2022/06/06 07:49:51;;;;;;;1.05;0.95;;;;;;;20.01;100.00;99834.81;12185909;19;20125;-82
2022/06/06 07:54:14;;;;;;;2.35;1.88;;;;;;;20.36;100.00;99844.41;12206297;19;20533;-82
2022/06/06 07:58:58;;;;;;;0.20;0.20;;;;;;;20.92;100.00;99834.69;12176662;19;21372;-81
2022/06/06 08:03:15;;;;;;;0.80;0.68;;;;;;;21.03;97.98;99838.09;12197953;19;20066;-82
2022/06/06 08:07:27;;;;;;;0.73;0.73;;;;;;;20.62;96.75;99836.28;12185580;19;20021;-81
2022/06/06 08:11:48;;;;;;;;;;;;;;;20.36;99.26;99841.59;12207469;19;20829;-81
2022/06/06 08:16:14;;;;;;;0.52;0.43;;;;;;;20.19;100.00;99828.25;12180140;19;20273;-82
2022/06/06 08:20:36;;;;;;;0.35;0.35;;;;;;;19.78;100.00;99839.47;12201416;19;20322;-82
2022/06/06 08:24:45;;;;;;;0.32;0.32;;;;;;;19.43;100.00;99816.66;12187621;19;20028;-81
2022/06/06 08:29:00;;;;;;;1.83;1.48;;;;;;;19.23;100.00;99812.28;12201519;19;20049;-82
2022/06/06 08:33:02;;;;;;;0.93;0.93;;;;;;;18.97;100.00;99825.84;12212588;19;20014;-82
2022/06/06 08:37:24;;;;;;;0.30;0.30;;;;;;;18.90;100.00;99845.81;12181735;19;20082;-82
2022/06/06 08:41:35;;;;;;;2.03;0.50;;;;;;;18.13;100.00;99857.25;12217008;19;20374;-79
2022/06/06 08:46:14;;;;;;;0.55;0.55;;;;;;;17.96;100.00;99860.50;12198580;19;20038;-86
2022/06/06 08:50:53;;;;;;;0.10;0.10;;;;;;;17.17;100.00;99857.16;12211870;19;20031;-83
2022/06/06 08:55:06;;;;;;;0.20;0.20;;;;;;;17.09;100.00;99858.63;12180415;19;20011;-80
2022/06/06 08:59:17;;;;;;;0.10;0.10;;;;;;;17.40;100.00;99854.72;12211641;19;20014;-80
2022/06/06 09:03:24;;;;;;;0.10;0.10;;;;;;;17.82;100.00;99847.59;12201992;19;20011;-79
2022/06/06 09:07:45;;;;;;;0.10;0.10;;;;;;;18.25;100.00;99859.59;12190259;19;20532;-79
2022/06/06 09:12:05;;;;;;;0.40;0.40;;;;;;;18.72;100.00;99857.78;12210269;19;20081;-79
2022/06/06 09:16:37;;;;;;;0.70;0.65;;;;;;;18.56;100.00;99848.84;12183819;19;20046;-80
2022/06/06 09:21:17;;;;;;;0.10;0.10;;;;;;;18.55;100.00;99863.91;12219735;19;20010;-79
2022/06/06 09:25:58;;;;;;;0.50;0.50;;;;;;;19.14;100.00;99858.81;12186149;19;20011;-81
2022/06/06 09:30:14;;;;;;;0.30;0.30;;;;;;;19.86;100.00;99852.75;12202271;19;20409;-78
2022/06/06 09:34:58;;;;;;;0.47;0.30;;;;;;;20.02;100.00;99858.88;12184106;19;20132;-78
2022/06/06 09:39:16;;;;;;;0.55;0.40;;;;;;;20.23;100.00;99856.47;12209343;19;20006;-81
2022/06/06 09:43:53;;;;;;;0.20;0.20;;;;;;;20.29;100.00;99866.41;12193253;19;20033;-80
2022/06/06 09:48:21;;;;;;;0.10;0.10;;;;;;;19.97;100.00;99854.19;12207544;19;20046;-80
2022/06/06 09:52:42;;;;;;;0.43;0.43;;;;;;;19.94;100.00;99857.63;12187190;19;20511;-82
2022/06/06 10:01:55;;;;;;;0.20;0.20;;;;;;;19.85;100.00;99844.69;12215775;19;20033;-81
2022/06/06 10:06:30;;;;;;;0.38;0.38;;;;;;;20.47;100.00;99842.22;12215347;19;20015;-82
2022/06/06 10:10:36;;;;;;;0.10;0.10;;;;;;;21.15;100.00;99848.72;12192511;19;20022;-82
2022/06/06 10:19:37;;;;;;;1.10;0.45;;;;;;;21.08;100.00;99825.91;12203629;19;20026;-82
2022/06/06 10:24:05;;;;;;;0.25;0.25;;;;;;;21.11;100.00;99826.09;12218100;19;20024;-80
2022/06/06 10:28:28;;;;;;;0.30;0.30;;;;;;;21.07;100.00;99836.28;12180096;19;20422;-81
2022/06/06 10:32:51;;;;;;;0.25;0.25;;;;;;;20.80;100.00;99830.81;12202036;19;20365;-80
2022/06/06 10:37:13;;;;;;;;;;;;;;;20.89;100.00;99834.53;12192628;19;20082;-81
2022/06/06 10:41:47;;;;;;;0.30;0.20;;;;;;;21.13;100.00;99831.38;12201096;19;22341;-79
2022/06/06 10:45:58;;;;;;;0.30;0.30;;;;;;;21.33;100.00;99832.84;12189005;19;20488;-78
2022/06/06 10:50:18;;;;;;;0.25;0.20;;;;;;;21.58;100.00;99834.13;12206376;19;20031;-80
2022/06/06 10:55:00;;;;;;;0.60;0.50;;;;;;;21.44;100.00;99825.00;12205685;19;20377;-80
2022/06/06 10:59:18;;;;;;;0.22;0.22;;;;;;;21.84;100.00;99817.41;12096210;19;2004345;-80
2022/06/06 11:03:35;;;;;;;3.20;0.40;;;;;;;21.92;100.00;99821.38;12194412;19;20018;-78
2022/06/06 11:08:07;;;;;;;0.30;0.30;;;;;;;21.83;100.00;99815.75;12188514;19;20362;-81
2022/06/06 11:12:50;;;;;;;0.40;0.40;;;;;;;22.40;100.00;99823.31;12229034;19;20010;-81
2022/06/06 11:18:27;;;;;;;0.40;0.40;;;;;;;23.13;98.02;99821.50;12202428;19;20087;-82
2022/06/06 11:33:38;;;;;;;0.15;0.15;;;;;;;24.25;81.88;99796.06;12209595;19;20017;-80
2022/06/06 11:38:06;;;;;;;0.20;0.20;;;;;;;24.75;82.70;99796.03;12185436;19;20017;-81
2022/06/06 11:42:22;;;;;;;0.38;0.38;;;;;;;24.92;67.85;99795.03;12202789;19;20003;-80
2022/06/06 11:46:58;;;;;;;0.25;0.25;;;;;;;25.15;69.58;99786.22;12184830;19;20412;-81
2022/06/06 11:51:24;;;;;;;0.32;0.32;;;;;;;25.70;65.05;99784.91;12207968;19;20034;-82
2022/06/06 11:55:38;;;;;;;0.22;0.22;;;;;;;25.89;62.37;99781.50;12189164;19;20006;-81
2022/06/06 12:00:05;;;;;;;0.13;0.13;;;;;;;25.51;62.20;99776.19;12204227;19;21486;-83
2022/06/06 12:04:13;;;;;;;0.40;0.40;;;;;;;25.69;61.40;99769.94;12166800;19;20002;-82
2022/06/06 12:08:35;;;;;;;0.28;0.28;;;;;;;26.29;59.09;99770.25;12204533;19;20015;-80
2022/06/06 12:13:02;;;;;;;0.38;0.38;;;;;;;26.69;52.95;99758.19;12190746;19;20015;-82
2022/06/06 12:17:18;;;;;;;0.47;0.47;;;;;;;27.44;48.04;99753.78;12212054;19;20007;-82
2022/06/06 12:21:57;;;;;;;0.20;0.20;;;;;;;28.37;50.47;99756.00;12215837;19;20006;-84
2022/06/06 12:26:18;;;;;;;0.90;0.88;;;;;;;29.25;50.65;99738.41;12109127;19;2004260;-83
2022/06/06 12:30:25;;;;;;;1.38;0.32;;;;;;;30.41;51.47;99731.34;12184256;19;20015;-82
2022/06/06 12:34:54;;;;;;;0.45;0.45;;;;;;;31.16;48.33;99729.38;12213280;19;20074;-82
2022/06/06 12:39:07;;;;;;;1.73;0.52;;;;;;;31.36;42.61;99729.22;12217661;19;20090;-83
2022/06/06 12:43:23;;;;;;;0.30;0.30;;;;;;;31.73;39.79;99723.41;12184676;19;20010;-82
2022/06/06 12:47:37;;;;;;;3.53;0.55;;;;;;;32.63;39.65;99719.06;12209660;19;20006;-83
2022/06/06 12:52:09;;;;;;;0.20;0.20;;;;;;;33.07;42.12;99718.00;12195584;19;20014;-83
2022/06/06 12:56:45;;;;;;;0.20;0.20;;;;;;;32.65;36.87;99714.59;12201090;19;20011;-82
2022/06/06 13:05:34;;;;;;;0.20;0.20;;;;;;;34.22;36.61;99701.69;12204882;19;20013;-82
2022/06/06 13:09:49;;;;;;;3.40;2.30;;;;;;;34.82;36.80;99694.91;12181541;19;20070;-82
2022/06/06 13:14:20;;;;;;;8.43;2.08;;;;;;;34.97;32.40;99691.97;12198395;19;20038;-82
2022/06/06 13:18:42;;;;;;;4.18;1.92;;;;;;;36.10;32.82;99674.25;12190588;19;20512;-82
2022/06/06 13:23:16;;;;;;;3.85;1.90;;;;;;;36.24;29.94;99662.63;12209203;19;20017;-83
2022/06/06 13:27:38;;;;;;;4.43;2.10;;;;;;;34.75;31.23;99672.06;12224027;19;20017;-82
2022/06/06 13:32:02;;;;;;;5.88;2.00;;;;;;;33.54;32.28;99668.31;12207956;19;20011;-81
2022/06/06 13:36:29;;;;;;;5.97;1.88;;;;;;;34.36;30.78;99673.03;12219290;19;20609;-83
2022/06/06 13:40:46;;;;;;;2.42;1.98;;;;;;;35.29;28.80;99645.94;12198690;19;20482;-82
2022/06/06 13:45:03;;;;;;;2.60;1.92;;;;;;;35.97;28.70;99642.44;12221016;19;20015;-83
2022/06/06 13:49:12;;;;;;;1.70;1.60;;;;;;;37.28;26.43;99656.25;12199772;19;19999;-83
2022/06/06 13:53:32;;;;;;;4.07;1.67;;;;;;;37.56;26.18;99657.81;12206309;19;20014;-83
2022/06/06 13:58:06;;;;;;;2.63;1.80;;;;;;;36.69;25.78;99643.19;12191447;19;20014;-84
2022/06/06 14:02:34;;;;;;;2.60;1.70;;;;;;;36.54;26.58;99636.03;12202335;19;20123;-83
2022/06/06 14:07:06;;;;;;;2.22;1.55;;;;;;;36.86;26.79;99647.03;12175106;19;20400;-83
2022/06/06 14:11:10;;;;;;;2.35;1.63;;;;;;;33.65;28.98;99656.06;12218756;19;20014;-84
2022/06/06 14:15:18;;;;;;;3.20;1.73;;;;;;;31.46;32.08;99662.97;12199715;19;19998;-83
2022/06/06 14:19:22;;;;;;;2.20;1.65;;;;;;;31.72;31.70;99648.53;12190472;19;20353;-83
2022/06/06 14:23:29;;;;;;;4.20;1.80;;;;;;;31.92;31.71;99648.28;12206019;19;20027;-83
2022/06/06 14:27:33;;;;;;;5.90;1.77;;;;;;;30.76;34.04;99648.47;12181507;19;20081;-84
2022/06/06 14:31:48;;;;;;;2.30;1.50;;;;;;;32.17;32.21;99642.69;12216702;19;20007;-83
2022/06/06 14:35:50;;;;;;;2.83;1.40;;;;;;;31.97;32.11;99642.19;12213275;19;20027;-83
2022/06/06 14:39:55;;;;;;;2.95;1.38;;;;;;;30.99;33.06;99656.03;12189934;19;20034;-81
2022/06/06 14:44:00;;;;;;;2.58;1.38;;;;;;;29.88;33.77;99649.81;12200079;19;20050;-81
2022/06/06 14:48:16;;;;;;;3.67;1.27;;;;;;;29.18;34.51;99648.31;12200879;19;20043;-79
2022/06/06 14:52:20;;;;;;;3.67;1.10;;;;;;;29.22;34.49;99651.19;12181150;19;20010;-81
2022/06/06 14:56:34;;;;;;;2.75;1.10;;;;;;;28.81;34.67;99642.34;12208240;19;20034;-80
2022/06/06 15:00:48;;;;;;;1.65;1.20;;;;;;;28.82;33.54;99643.97;12184171;19;20046;-79
2022/06/06 15:05:12;;;;;;;2.63;1.02;;;;;;;29.30;32.98;99645.25;12210543;19;20093;-79
2022/06/06 15:09:37;;;;;;;1.92;1.00;;;;;;;30.54;31.80;99627.50;12194579;19;20014;-80
2022/06/06 15:13:46;;;;;;;1.42;0.90;;;;;;;30.08;32.46;99639.13;12187174;19;20078;-82
2022/06/06 15:17:50;;;;;;;3.92;1.10;;;;;;;30.23;32.22;99645.84;12205342;19;20014;-81
2022/06/06 15:21:53;;;;;;;2.10;0.95;;;;;;;30.36;31.39;99646.38;12187669;19;20488;-78
2022/06/06 15:26:01;;;;;;;2.90;1.17;;;;;;;29.97;31.72;99638.97;12206925;19;20769;-79
2022/06/06 15:30:28;;;;;;;5.18;1.10;;;;;;;29.03;32.77;99637.88;12181547;19;20010;-82
2022/06/06 15:34:44;;;;;;;3.75;1.10;;;;;;;28.36;33.15;99632.53;12207503;19;20028;-80
2022/06/06 15:39:08;;;;;;;1.77;0.90;;;;;;;27.99;34.06;99629.31;12206457;19;20003;-81
2022/06/06 15:43:29;;;;;;;2.33;0.90;;;;;;;27.83;34.52;99621.72;12176001;19;20487;-80
2022/06/06 15:47:51;;;;;;;1.13;0.70;;;;;;;27.49;34.48;99629.00;12209339;19;20018;-82
2022/06/06 15:52:03;;;;;;;1.27;0.80;;;;;;;26.80;34.71;99629.28;12182730;19;20409;-81
2022/06/06 15:56:30;;;;;;;3.92;0.80;;;;;;;26.28;34.22;99626.59;12204565;19;20398;-79
2022/06/06 16:00:37;;;;;;;2.65;1.02;;;;;;;26.34;34.13;99619.50;12183329;19;20078;-82
2022/06/06 16:04:46;;;;;;;2.78;0.68;;;;;;;26.17;33.74;99623.44;12191210;19;20418;-80
2022/06/06 16:09:20;;;;;;;1.98;0.73;;;;;;;26.09;34.05;99621.63;12199985;19;20010;-81
2022/06/06 16:13:50;;;;;;;2.65;0.80;;;;;;;25.96;35.23;99614.34;12174041;19;20373;-81
2022/06/06 16:17:58;;;;;;;3.65;0.80;;;;;;;25.77;35.92;99620.63;12192784;19;20078;-81
2022/06/06 16:22:21;;;;;;;1.30;0.70;;;;;;;25.66;35.27;99623.09;12174651;19;20097;-82
2022/06/06 16:26:40;;;;;;;2.92;0.85;;;;;;;25.72;35.85;99606.75;12196436;19;20022;-82
2022/06/06 16:30:50;;;;;;;3.05;0.77;;;;;;;25.88;35.50;99616.16;12181903;19;20090;-83
2022/06/06 16:34:55;;;;;;;4.38;1.02;;;;;;;25.79;35.78;99619.09;12205665;19;20070;-82
2022/06/06 16:38:59;;;;;;;3.47;0.88;;;;;;;25.76;35.63;99619.81;12204863;19;20032;-81
2022/06/06 16:52:08;;;;;;;1.90;0.80;;;;;;;25.35;36.44;99620.94;12179197;19;20007;-81
2022/06/06 16:56:27;;;;;;;4.47;0.93;;;;;;;25.38;37.19;99615.41;12190721;19;20774;-82
2022/06/06 17:00:52;;;;;;;2.00;0.88;;;;;;;25.45;36.71;99611.97;12207028;19;20015;-79
2022/06/06 17:05:14;;;;;;;1.48;0.85;;;;;;;25.43;36.47;99617.97;12228339;19;20066;-82
2022/06/06 17:09:25;;;;;;;1.88;0.80;;;;;;;25.28;35.72;99615.84;12217470;19;20057;-83
2022/06/06 17:13:27;;;;;;;4.30;0.80;;;;;;;25.30;36.25;99619.16;12193934;19;20015;-83
2022/06/06 17:17:53;;;;;;;6.35;0.90;;;;;;;25.06;36.68;99614.31;12209685;19;20015;-79
2022/06/06 17:22:00;;;;;;;2.30;1.00;;;;;;;25.01;36.76;99612.53;12185846;19;20010;-82
2022/06/06 17:26:25;;;;;;;4.25;0.88;;;;;;;25.00;37.88;99612.91;12203516;19;20015;-83
2022/06/06 17:30:48;;;;;;;1.70;0.80;;;;;;;24.79;38.44;99611.00;12181082;19;20041;-82
2022/06/06 17:35:21;;;;;;;2.03;0.80;;;;;;;24.54;38.42;99629.03;12212723;19;20013;-82
2022/06/06 17:39:37;;;;;;;1.73;0.73;;;;;;;24.03;39.02;99615.06;12184658;19;20014;-79
2022/06/06 17:43:45;;;;;;;1.55;0.80;;;;;;;23.56;40.41;99620.88;12211681;19;20014;-82
2022/06/06 17:48:18;;;;;;;2.75;0.80;;;;;;;23.26;41.06;99622.06;12212444;19;20014;-83
2022/06/06 17:52:54;;;;;;;2.20;0.80;;;;;;;23.07;40.98;99628.13;12197744;19;20023;-82
2022/06/06 17:57:15;;;;;;;2.60;0.80;;;;;;;22.96;41.09;99627.66;12211746;19;20448;-83
2022/06/06 18:01:22;;;;;;;1.55;0.80;;;;;;;22.93;41.23;99631.09;12184816;19;20551;-83
2022/06/06 18:05:49;;;;;;;2.78;0.80;;;;;;;22.97;41.42;99624.53;12209945;19;20010;-82
2022/06/06 18:10:24;;;;;;;4.07;0.85;;;;;;;22.87;42.49;99633.28;12182115;19;20014;-84
2022/06/06 18:14:36;;;;;;;1.88;0.70;;;;;;;22.92;41.67;99629.47;12202992;19;20460;-83
2022/06/06 18:18:59;;;;;;;3.20;1.13;;;;;;;22.75;42.20;99628.41;12192844;19;20353;-83
2022/06/06 18:23:26;;;;;;;1.50;0.70;;;;;;;22.57;42.60;99637.19;12218069;19;20006;-83
2022/06/06 18:27:40;;;;;;;2.40;0.90;;;;;;;22.40;42.79;99635.22;12189448;19;20003;-82
2022/06/06 18:31:52;;;;;;;2.63;0.70;;;;;;;22.25;43.02;99643.03;12212691;19;20019;-83
2022/06/06 18:35:56;;;;;;;2.22;0.82;;;;;;;22.07;43.77;99647.81;12221588;19;20012;-84
2022/06/06 18:40:02;;;;;;;2.13;1.10;;;;;;;21.95;44.14;99642.03;12199762;19;20083;-85
2022/06/06 18:44:16;;;;;;;0.88;0.50;;;;;;;21.73;44.39;99643.00;12206939;19;20510;-84
2022/06/06 18:48:21;;;;;;;1.55;0.60;;;;;;;21.64;44.23;99649.75;12209293;19;20039;-83
2022/06/06 18:52:26;;;;;;;0.75;0.60;;;;;;;21.54;44.73;99654.53;12198345;19;20007;-82
2022/06/06 18:56:36;;;;;;;1.20;0.75;;;;;;;21.48;44.57;99655.00;12213436;19;21237;-83
2022/06/06 19:00:40;;;;;;;4.32;1.00;;;;;;;21.40;45.22;99651.03;12202313;19;20567;-83
2022/06/06 19:04:50;;;;;;;2.75;0.65;;;;;;;21.27;44.82;99647.19;12206450;19;20014;-84
2022/06/06 19:08:57;;;;;;;2.00;0.50;;;;;;;21.23;44.78;99653.75;12222222;19;20350;-83
2022/06/06 19:13:23;;;;;;;2.15;0.70;;;;;;;21.05;45.10;99652.84;12198816;19;20033;-82
2022/06/06 19:17:44;;;;;;;2.75;0.80;;;;;;;20.90;45.43;99663.34;12209488;19;20027;-81
2022/06/06 19:22:15;;;;;;;2.00;0.77;;;;;;;20.81;45.55;99668.06;12197761;19;20495;-82
2022/06/06 19:26:34;;;;;;;;;;;;;;;20.67;45.58;99659.78;12218925;19;20723;-84
2022/06/06 19:30:37;;;;;;;1.08;0.57;;;;;;;20.60;45.08;99664.16;12181701;19;19914;-84
2022/06/06 19:34:53;;;;;;;2.50;0.80;;;;;;;20.51;45.96;99666.06;12218152;19;20010;-84
2022/06/06 19:39:32;;;;;;;0.50;0.40;;;;;;;20.38;46.41;99665.81;12219626;19;20003;-82
2022/06/06 19:43:34;;;;;;;1.67;0.50;;;;;;;20.26;46.27;99659.97;12194586;19;20024;-83
2022/06/06 19:47:38;;;;;;;3.15;0.70;;;;;;;20.20;46.30;99678.03;12214712;19;20002;-83
2022/06/06 19:51:43;;;;;;;0.77;0.65;;;;;;;20.12;46.85;99664.81;12191012;19;20031;-84
2022/06/06 19:55:59;;;;;;;6.32;1.60;;;;;;;20.03;47.44;99670.31;12208348;19;20034;-81
2022/06/06 20:00:06;;;;;;;1.17;0.77;;;;;;;19.94;47.21;99673.03;12203636;19;20403;-85
2022/06/06 20:04:45;;;;;;;1.45;0.50;;;;;;;19.86;47.28;99670.16;12184037;19;20132;-84
2022/06/06 20:09:03;;;;;;;1.50;0.47;;;;;;;19.75;47.48;99680.75;12209705;19;20014;-84
2022/06/06 20:13:27;;;;;;;0.65;0.60;;;;;;;19.68;47.41;99671.97;12179074;19;20024;-82
2022/06/06 20:17:32;;;;;;;2.30;0.80;;;;;;;19.62;47.50;99679.59;12208334;19;20483;-82
2022/06/06 20:21:34;;;;;;;2.10;0.60;;;;;;;19.53;47.51;99682.31;12182747;19;20027;-83
2022/06/06 20:25:40;;;;;;;3.50;0.80;;;;;;;19.47;47.61;99686.34;12206363;19;20078;-84
2022/06/06 20:29:42;;;;;;;4.53;0.90;;;;;;;19.44;47.54;99688.94;12210164;19;20010;-83
2022/06/06 20:33:44;;;;;;;1.80;1.05;;;;;;;19.41;48.30;99681.19;12187501;19;20027;-82